createdAt,value
2022-09-04T00:00:15.472Z,100506.06
2022-09-04T00:03:08.657Z,100507.13
2022-09-04T00:05:39.710Z,100510.19
2022-09-04T00:08:25.069Z,100511.22
2022-09-04T00:11:27.047Z,100512.34
2022-09-04T00:14:07.357Z,100516.53
2022-09-04T00:16:43.007Z,100520.34
2022-09-04T00:19:16.875Z,100516.66
2022-09-04T00:21:51.095Z,100515.25
2022-09-04T00:24:42.310Z,100516.38
2022-09-04T00:27:21.740Z,100521.19
2022-09-04T00:29:55.455Z,100515.91
2022-09-04T00:32:39.922Z,100514.63
2022-09-04T00:35:17.012Z,100515.81
2022-09-04T00:38:03.434Z,100517.34
2022-09-04T00:40:35.795Z,100528.69
2022-09-04T00:43:36.611Z,100519.31
2022-09-04T00:46:31.984Z,100526.59
2022-09-04T00:49:36.591Z,100523.25
2022-09-04T00:52:36.948Z,100526.63
2022-09-04T00:55:41.155Z,100531.50
2022-09-04T00:58:30.362Z,100535.72
2022-09-04T01:00:58.474Z,100537.84
2022-09-04T01:03:53.537Z,100534.47
2022-09-04T01:06:32.067Z,100540.34
2022-09-04T01:09:44.136Z,100536.19
2022-09-04T01:12:30.074Z,100533.09
2022-09-04T01:15:14.681Z,100542.47
2022-09-04T01:17:52.556Z,100550.44
2022-09-04T01:20:28.150Z,100550.44
2022-09-04T01:23:17.243Z,100541.63
2022-09-04T01:26:00.897Z,100547.09
2022-09-04T01:28:49.757Z,100547.66
2022-09-04T01:31:25.124Z,100545.44
2022-09-04T01:34:35.783Z,100549.91
2022-09-04T01:37:44.011Z,100556.63
2022-09-04T01:40:24.030Z,100553.69
2022-09-04T01:43:08.506Z,100554.06
2022-09-04T01:45:53.321Z,100559.69
2022-09-04T01:48:27.781Z,100557.13
2022-09-04T01:50:58.499Z,100557.56
2022-09-04T01:53:26.679Z,100564.81
2022-09-04T01:56:21.855Z,100554.59
2022-09-04T01:58:56.798Z,100558.53
2022-09-04T02:01:32.169Z,100556.72
2022-09-04T02:04:22.197Z,100552.41
2022-09-04T02:07:15.615Z,100549.03
2022-09-04T02:10:01.577Z,100551.69
2022-09-04T02:12:38.146Z,100550.69
2022-09-04T02:15:13.445Z,100553.78
2022-09-04T02:17:47.409Z,100546.47
2022-09-04T02:20:24.099Z,100549.69
2022-09-04T02:23:11.865Z,100551.94
2022-09-04T02:25:58.269Z,100548.00
2022-09-04T02:28:47.848Z,100543.66
2022-09-04T02:31:32.865Z,100555.16
2022-09-04T02:34:13.674Z,100557.09
2022-09-04T02:36:47.119Z,100550.38
2022-09-04T02:39:36.945Z,100551.22
2022-09-04T02:42:24.216Z,100549.84
2022-09-04T02:44:53.913Z,100548.94
2022-09-04T02:47:51.532Z,100548.66
2022-09-04T02:50:46.329Z,100545.44
2022-09-04T02:53:51.688Z,100543.81
2022-09-04T02:56:31.376Z,100546.47
2022-09-04T02:59:19.839Z,100554.25
2022-09-04T03:01:58.223Z,100545.00
2022-09-04T03:04:39.379Z,100550.44
2022-09-04T03:07:13.784Z,100548.59
2022-09-04T03:09:52.701Z,100548.03
2022-09-04T03:12:30.158Z,100550.97
2022-09-04T03:15:17.799Z,100552.16
2022-09-04T03:17:49.304Z,100564.72
2022-09-04T03:20:53.042Z,100558.38
2022-09-04T03:23:43.641Z,100556.88
2022-09-04T03:26:18.948Z,100565.66
2022-09-04T03:29:01.135Z,100567.75
2022-09-04T03:31:39.444Z,100565.94
2022-09-04T03:34:30.207Z,100568.00
2022-09-04T03:37:12.833Z,100564.91
2022-09-04T03:40:09.185Z,100574.09
2022-09-04T03:42:58.118Z,100572.91
2022-09-04T03:45:36.961Z,100578.00
2022-09-04T03:48:27.657Z,100565.97
2022-09-04T03:51:33.423Z,100574.31
2022-09-04T03:54:37.370Z,100568.69
2022-09-04T03:57:15.953Z,100569.28
2022-09-04T03:59:55.102Z,100581.47
2022-09-04T04:03:00.830Z,100584.63
2022-09-04T04:05:52.869Z,100576.53
2022-09-04T04:08:37.822Z,100588.59
2022-09-04T04:11:07.401Z,100582.41
2022-09-04T04:14:01.790Z,100585.22
2022-09-04T04:16:40.774Z,100591.53
2022-09-04T04:19:29.035Z,100581.09
2022-09-04T04:22:06.502Z,100584.19
2022-09-04T04:25:12.361Z,100590.31
2022-09-04T04:27:44.716Z,100599.00
2022-09-04T04:30:15.103Z,100597.91
2022-09-04T04:33:19.893Z,100611.88
2022-09-04T04:36:17.795Z,100607.72
2022-09-04T04:38:56.303Z,100613.03
2022-09-04T04:41:55.812Z,100613.03
2022-09-04T04:44:50.312Z,100611.78
2022-09-04T04:47:41.031Z,100608.59
2022-09-04T04:50:22.428Z,100609.28
2022-09-04T04:53:14.644Z,100615.31
2022-09-04T04:56:04.580Z,100618.69
2022-09-04T04:58:51.251Z,100626.25
2022-09-04T05:01:25.669Z,100626.28
2022-09-04T05:04:13.863Z,100626.56
2022-09-04T05:06:50.982Z,100630.81
2022-09-04T05:09:33.598Z,100631.97
2022-09-04T05:12:11.542Z,100632.81
2022-09-04T05:14:45.835Z,100631.41
2022-09-04T05:17:36.255Z,100632.66
2022-09-04T05:20:23.919Z,100640.91
2022-09-04T05:23:09.589Z,100643.16
2022-09-04T05:26:14.976Z,100638.91
2022-09-04T05:29:05.150Z,100637.91
2022-09-04T05:31:49.158Z,100646.41
2022-09-04T05:34:36.849Z,100643.34
2022-09-04T05:37:07.934Z,100644.44
2022-09-04T05:39:48.323Z,100649.72
2022-09-04T05:42:34.038Z,100648.66
2022-09-04T05:45:21.861Z,100663.78
2022-09-04T05:48:02.717Z,100662.88
2022-09-04T05:50:31.972Z,100662.53
2022-09-04T05:53:14.524Z,100664.81
2022-09-04T05:56:05.159Z,100668.91
2022-09-04T05:59:03.160Z,100670.91
2022-09-04T06:01:56.951Z,100671.50
2022-09-04T06:04:39.835Z,100668.50
2022-09-04T06:07:27.712Z,100675.00
2022-09-04T06:10:00.446Z,100675.41
2022-09-04T06:12:48.377Z,100682.53
2022-09-04T06:16:03.183Z,100682.94
2022-09-04T06:19:16.821Z,100688.69
2022-09-04T06:21:43.525Z,100686.34
2022-09-04T06:24:21.099Z,100697.78
2022-09-04T06:27:08.775Z,100702.19
2022-09-04T06:29:54.257Z,100696.88
2022-09-04T06:32:27.736Z,100698.44
2022-09-04T06:35:12.049Z,100698.69
2022-09-04T06:38:16.207Z,100698.34
2022-09-04T06:41:08.521Z,100708.75
2022-09-04T06:43:58.492Z,100709.06
2022-09-04T06:46:34.433Z,100711.25
2022-09-04T06:49:10.038Z,100714.91
2022-09-04T06:51:52.330Z,100717.06
2022-09-04T06:55:01.353Z,100717.00
2022-09-04T06:57:46.431Z,100740.44
2022-09-04T07:00:17.726Z,100754.59
2022-09-04T07:02:55.823Z,100767.50
2022-09-04T07:05:40.505Z,100786.34
2022-09-04T07:08:33.647Z,100790.34
2022-09-04T07:11:21.210Z,100800.28
2022-09-04T07:13:54.516Z,100806.88
2022-09-04T07:16:33.177Z,100807.28
2022-09-04T07:19:37.451Z,100811.16
2022-09-04T07:22:34.846Z,100806.69
2022-09-04T07:25:04.037Z,100816.72
2022-09-04T07:27:41.061Z,100820.31
2022-09-04T07:30:12.411Z,100821.38
2022-09-04T07:32:49.424Z,100820.19
2022-09-04T07:35:38.376Z,100811.66
2022-09-04T07:38:37.730Z,100823.78
2022-09-04T07:41:32.495Z,100830.19
2022-09-04T07:44:17.486Z,100821.28
2022-09-04T07:46:52.585Z,100814.72
2022-09-04T07:49:58.266Z,100815.00
2022-09-04T07:53:03.023Z,100800.72
2022-09-04T07:55:36.891Z,100797.94
2022-09-04T07:58:37.443Z,100801.75
2022-09-04T08:01:23.329Z,100800.38
2022-09-04T08:04:09.724Z,100801.34
2022-09-04T08:06:39.063Z,100808.41
2022-09-04T08:09:33.907Z,100796.38
2022-09-04T08:12:32.324Z,100799.47
2022-09-04T08:15:05.882Z,100782.25
2022-09-04T08:17:51.309Z,100766.22
2022-09-04T08:20:46.910Z,100768.13
2022-09-04T08:23:35.889Z,100763.06
2022-09-04T08:26:27.317Z,100755.44
2022-09-04T08:29:14.138Z,100751.38
2022-09-04T08:31:43.412Z,100754.84
2022-09-04T08:34:46.262Z,100757.41
2022-09-04T08:37:50.401Z,100763.16
2022-09-04T08:40:38.839Z,100757.25
2022-09-04T08:43:29.316Z,100759.13
2022-09-04T08:46:28.735Z,100762.91
2022-09-04T08:49:23.126Z,100761.34
2022-09-04T08:52:01.541Z,100764.50
2022-09-04T08:54:51.044Z,100750.00
2022-09-04T08:57:47.257Z,100755.06
2022-09-04T09:00:45.676Z,100757.72
2022-09-04T09:03:36.926Z,100760.91
2022-09-04T09:06:21.465Z,100752.00
2022-09-04T09:09:21.977Z,100760.28
2022-09-04T09:11:54.308Z,100762.97
2022-09-04T09:14:42.480Z,100760.41
2022-09-04T09:17:38.542Z,100756.50
2022-09-04T09:20:42.383Z,100753.53
2022-09-04T09:23:18.125Z,100748.75
2022-09-04T09:26:23.740Z,100747.56
2022-09-04T09:29:09.198Z,100753.94
2022-09-04T09:31:55.131Z,100746.81
2022-09-04T09:35:01.417Z,100742.44
2022-09-04T09:37:48.984Z,100739.97
2022-09-04T09:40:28.274Z,100738.16
2022-09-04T09:43:12.538Z,100742.50
2022-09-04T09:46:00.810Z,100744.28
2022-09-04T09:49:04.806Z,100742.47
2022-09-04T09:51:51.266Z,100750.31
2022-09-04T09:54:38.044Z,100740.41
2022-09-04T09:57:38.980Z,100742.88
2022-09-04T10:00:15.929Z,100748.97
2022-09-04T10:03:02.736Z,100744.44
2022-09-04T10:05:54.346Z,100746.94
2022-09-04T10:09:01.054Z,100736.13
2022-09-04T10:12:01.734Z,100739.84
2022-09-04T10:14:53.764Z,100736.13
2022-09-04T10:17:33.836Z,100731.53
2022-09-04T10:20:15.445Z,100728.00
2022-09-04T10:23:04.484Z,100731.28
2022-09-04T10:25:56.372Z,100733.59
2022-09-04T10:28:57.991Z,100734.03
2022-09-04T10:31:31.272Z,100731.72
2022-09-04T10:34:24.293Z,100727.75
2022-09-04T10:37:21.139Z,100728.56
2022-09-04T10:40:25.191Z,100729.28
2022-09-04T10:43:17.092Z,100731.78
2022-09-04T10:46:02.404Z,100744.25
2022-09-04T10:48:54.095Z,100739.16
2022-09-04T10:51:31.673Z,100739.94
2022-09-04T10:54:11.146Z,100741.13
2022-09-04T10:57:03.718Z,100748.00
2022-09-04T11:00:06.048Z,100741.75
2022-09-04T11:03:03.496Z,100749.38
2022-09-04T11:06:02.317Z,100733.53
2022-09-04T11:08:50.958Z,100735.31
2022-09-04T11:11:36.230Z,100744.00
2022-09-04T11:14:28.384Z,100738.75
2022-09-04T11:17:28.383Z,100737.09
2022-09-04T11:20:00.871Z,100743.06
2022-09-04T11:22:58.148Z,100741.47
2022-09-04T11:25:45.697Z,100734.72
2022-09-04T11:28:40.352Z,100734.69
2022-09-04T11:31:25.319Z,100738.09
2022-09-04T11:34:11.687Z,100738.09
2022-09-04T11:36:58.357Z,100747.38
2022-09-04T11:39:52.821Z,100739.94
2022-09-04T11:42:29.378Z,100744.56
2022-09-04T11:45:27.088Z,100740.03
2022-09-04T11:48:01.204Z,100740.03
2022-09-04T11:50:38.573Z,100736.78
2022-09-04T11:53:40.598Z,100733.09
2022-09-04T11:56:25.578Z,100734.88
2022-09-04T11:59:21.243Z,100727.22
2022-09-04T12:02:09.213Z,100724.59
2022-09-04T12:05:04.291Z,100722.19
2022-09-04T12:07:55.351Z,100718.03
2022-09-04T12:10:47.839Z,100720.47
2022-09-04T12:13:16.966Z,100720.97
2022-09-04T12:15:58.490Z,100713.09
2022-09-04T12:18:54.432Z,100710.22
2022-09-04T12:21:53.256Z,100706.13
2022-09-04T12:24:58.161Z,100710.28
2022-09-04T12:27:46.215Z,100712.19
2022-09-04T12:30:23.605Z,100715.88
2022-09-04T12:33:20.706Z,100712.78
2022-09-04T12:36:06.282Z,100715.06
2022-09-04T12:39:02.902Z,100704.84
2022-09-04T12:41:50.034Z,100705.28
2022-09-04T12:44:38.356Z,100709.00
2022-09-04T12:47:14.066Z,100697.78
2022-09-04T12:49:46.608Z,100699.84
2022-09-04T12:52:22.061Z,100705.28
2022-09-04T12:55:03.483Z,100697.78
2022-09-04T12:58:01.090Z,100700.25
2022-09-04T13:00:40.899Z,100707.13
2022-09-04T13:03:17.439Z,100707.16
2022-09-04T13:05:54.084Z,100702.94
2022-09-04T13:08:39.445Z,100708.50
2022-09-04T13:11:34.747Z,100710.94
2022-09-04T13:14:31.611Z,100705.56
2022-09-04T13:17:20.310Z,100714.34
2022-09-04T13:20:00.162Z,100712.19
2022-09-04T13:22:58.473Z,100719.31
2022-09-04T13:25:34.028Z,100715.53
2022-09-04T13:28:29.282Z,100711.53
2022-09-04T13:31:19.822Z,100705.72
2022-09-04T13:34:10.036Z,100710.97
2022-09-04T13:36:55.199Z,100724.56
2022-09-04T13:39:28.053Z,100721.28
2022-09-04T13:42:06.702Z,100723.34
2022-09-04T13:44:51.036Z,100722.09
2022-09-04T13:47:32.443Z,100721.75
2022-09-04T13:50:08.688Z,100725.13
2022-09-04T13:52:46.248Z,100727.22
2022-09-04T13:55:18.385Z,100722.06
2022-09-04T13:58:03.864Z,100735.94
2022-09-04T14:00:32.696Z,100731.44
2022-09-04T14:03:03.651Z,100724.28
2022-09-04T14:05:32.373Z,100723.84
2022-09-04T14:08:05.310Z,100728.22
2022-09-04T14:10:55.737Z,100729.91
2022-09-04T14:13:58.744Z,100717.94
2022-09-04T14:16:25.425Z,100715.72
2022-09-04T14:19:15.650Z,100713.06
2022-09-04T14:22:15.025Z,100723.97
2022-09-04T14:25:11.703Z,100712.06
2022-09-04T14:28:08.633Z,100720.19
2022-09-04T14:30:58.895Z,100717.63
2022-09-04T14:34:04.859Z,100706.44
2022-09-04T14:36:49.766Z,100707.91
2022-09-04T14:39:27.140Z,100709.44
2022-09-04T14:42:16.352Z,100709.66
2022-09-04T14:45:12.502Z,100710.69
2022-09-04T14:47:47.122Z,100709.84
2022-09-04T14:50:16.848Z,100712.97
2022-09-04T14:52:53.352Z,100708.19
2022-09-04T14:55:39.890Z,100716.31
2022-09-04T14:58:18.073Z,100724.41
2022-09-04T15:01:01.070Z,100718.59
2022-09-04T15:03:35.107Z,100714.84
2022-09-04T15:06:08.263Z,100713.59
2022-09-04T15:08:40.610Z,100715.44
2022-09-04T15:11:09.674Z,100707.97
2022-09-04T15:13:55.684Z,100711.09
2022-09-04T15:16:39.811Z,100714.84
2022-09-04T15:19:26.624Z,100706.91
2022-09-04T15:22:04.572Z,100706.69
2022-09-04T15:24:38.154Z,100708.75
2022-09-04T15:27:16.553Z,100714.38
2022-09-04T15:30:03.872Z,100703.97
2022-09-04T15:32:36.609Z,100707.34
2022-09-04T15:35:24.208Z,100705.69
2022-09-04T15:37:52.888Z,100700.50
2022-09-04T15:40:34.542Z,100695.25
2022-09-04T15:43:21.155Z,100704.00
2022-09-04T15:45:53.314Z,100700.66
2022-09-04T15:48:40.894Z,100703.78
2022-09-04T15:51:19.145Z,100709.41
2022-09-04T15:54:08.020Z,100702.97
2022-09-04T15:56:39.529Z,100705.41
2022-09-04T15:59:15.902Z,100714.38
2022-09-04T16:02:11.816Z,100712.84
2022-09-04T16:04:46.599Z,100712.22
2022-09-04T16:07:19.707Z,100723.84
2022-09-04T16:09:55.793Z,100709.81
2022-09-04T16:12:34.443Z,100723.22
2022-09-04T16:15:11.296Z,100724.50
2022-09-04T16:17:45.225Z,100721.91
2022-09-04T16:20:18.420Z,100714.16
2022-09-04T16:22:52.002Z,100718.13
2022-09-04T16:25:19.140Z,100726.50
2022-09-04T16:27:54.258Z,100731.69
2022-09-04T16:30:41.452Z,100725.94
2022-09-04T16:33:27.268Z,100721.38
2022-09-04T16:36:00.403Z,100732.16
2022-09-04T16:38:32.397Z,100737.97
2022-09-04T16:41:01.979Z,100736.59
2022-09-04T16:43:32.237Z,100743.22
2022-09-04T16:46:12.338Z,100738.69
2022-09-04T16:48:50.613Z,100745.72
2022-09-04T16:51:40.583Z,100737.63
2022-09-04T16:54:28.634Z,100756.25
2022-09-04T16:57:13.103Z,100756.16
2022-09-04T17:00:01.166Z,100754.41
2022-09-04T17:02:44.925Z,100763.84
2022-09-04T17:05:19.704Z,100765.25
2022-09-04T17:07:59.122Z,100774.84
2022-09-04T17:10:55.018Z,100778.28
2022-09-04T17:13:27.947Z,100775.59
2022-09-04T17:16:12.190Z,100776.97
2022-09-04T17:18:46.758Z,100782.25
2022-09-04T17:24:36.592Z,100777.81
2022-09-04T17:28:56.163Z,100784.47
2022-09-04T17:29:08.799Z,100789.28
2022-09-04T17:30:43.782Z,100785.81
2022-09-04T17:39:01.159Z,100788.56
2022-09-04T17:40:46.498Z,100795.69
2022-09-04T17:40:53.608Z,100798.59
2022-09-04T17:42:10.292Z,100806.00
2022-09-04T17:44:50.491Z,100812.91
2022-09-04T17:47:34.862Z,100813.16
2022-09-04T17:50:02.735Z,100817.81
2022-09-04T17:52:34.330Z,100825.53
2022-09-04T17:55:10.783Z,100822.78
2022-09-04T17:58:02.812Z,100820.91
2022-09-04T18:00:50.184Z,100820.78
2022-09-04T18:03:32.194Z,100832.34
2022-09-04T18:06:21.909Z,100836.09
2022-09-04T18:08:55.927Z,100839.53
2022-09-04T18:11:27.799Z,100832.44
2022-09-04T18:14:02.614Z,100835.44
2022-09-04T18:17:12.116Z,100844.84
2022-09-04T18:19:43.619Z,100839.53
2022-09-04T18:22:46.111Z,100841.41
2022-09-04T18:25:22.910Z,100842.06
2022-09-04T18:28:12.526Z,100844.75
2022-09-04T18:37:08.683Z,100841.91
2022-09-04T18:37:19.199Z,100853.03
2022-09-04T18:37:22.869Z,100852.38
2022-09-04T18:39:48.819Z,100855.41
2022-09-04T18:50:30.392Z,100855.09
2022-09-04T18:50:31.249Z,100858.47
2022-09-04T18:50:44.117Z,100861.50
2022-09-04T18:51:35.015Z,100867.56
2022-09-04T18:54:19.503Z,100862.34
2022-09-04T18:56:49.594Z,100871.91
2022-09-04T18:59:20.474Z,100868.03
2022-09-04T19:02:10.892Z,100876.28
2022-09-04T19:05:05.110Z,100876.75
2022-09-04T19:07:53.168Z,100873.91
2022-09-04T19:10:33.765Z,100883.66
2022-09-04T19:13:08.418Z,100885.13
2022-09-04T19:15:49.047Z,100882.63
2022-09-04T19:18:27.110Z,100891.34
2022-09-04T19:21:09.938Z,100890.03
2022-09-04T19:24:05.299Z,100893.03
2022-09-04T19:26:47.104Z,100896.75
2022-09-04T19:29:13.799Z,100895.09
2022-09-04T19:31:53.935Z,100894.72
2022-09-04T19:34:31.315Z,100898.09
2022-09-04T19:38:28.965Z,100899.75
2022-09-04T19:46:02.563Z,100905.47
2022-09-04T19:46:11.288Z,100910.53
2022-09-04T19:46:17.920Z,100913.56
2022-09-04T19:49:14.606Z,100922.16
2022-09-04T19:53:32.907Z,100923.34
2022-09-04T19:54:59.931Z,100920.84
2022-09-04T19:57:40.061Z,100925.53
2022-09-04T20:00:32.985Z,100923.66
2022-09-04T20:03:05.622Z,100928.38
2022-09-04T20:05:34.754Z,100922.00
2022-09-04T20:08:16.937Z,100918.66
2022-09-04T20:11:34.513Z,100925.66
2022-09-04T20:14:13.921Z,100936.88
2022-09-04T20:17:00.183Z,100938.38
2022-09-04T20:19:38.718Z,100938.19
2022-09-04T20:22:13.716Z,100940.34
2022-09-04T20:25:18.306Z,100939.78
2022-09-04T20:27:51.075Z,100946.66
2022-09-04T20:30:25.077Z,100951.38
2022-09-04T20:33:17.839Z,100953.53
2022-09-04T20:35:59.006Z,100954.66
2022-09-04T20:38:32.596Z,100958.75
2022-09-04T20:41:27.715Z,100964.94
2022-09-04T20:44:03.539Z,100954.69
2022-09-04T20:51:29.328Z,100966.59
2022-09-04T20:52:52.043Z,100975.13
2022-09-04T20:52:55.064Z,100972.63
2022-09-04T20:55:31.821Z,100973.13
2022-09-04T21:03:06.294Z,100979.78
2022-09-04T21:03:17.936Z,100980.97
2022-09-04T21:04:17.999Z,100988.50
2022-09-04T21:06:58.953Z,100987.00
2022-09-04T21:09:55.414Z,100991.13
2022-09-04T21:12:33.440Z,100991.25
2022-09-04T21:15:14.687Z,100988.44
2022-09-04T21:17:47.390Z,100997.31
2022-09-04T21:20:38.962Z,100997.94
2022-09-04T21:24:03.052Z,100993.75
2022-09-04T21:26:58.646Z,101005.13
2022-09-04T21:30:06.272Z,101011.28
2022-09-04T21:33:26.940Z,101006.19
2022-09-04T21:36:26.862Z,101005.88
2022-09-04T21:39:25.881Z,101013.41
2022-09-04T21:42:41.451Z,101008.38
2022-09-04T21:45:37.058Z,101016.31
2022-09-04T21:48:41.618Z,101024.94
2022-09-04T21:51:29.397Z,101019.22
2022-09-04T21:54:38.199Z,101029.47
2022-09-04T22:02:30.922Z,101030.25
2022-09-04T22:02:36.081Z,101026.88
2022-09-04T22:03:19.389Z,101028.50
2022-09-04T22:06:04.365Z,101029.97
2022-09-04T22:13:28.627Z,101033.94
2022-09-04T22:13:34.247Z,101028.75
2022-09-04T22:14:43.139Z,101032.78
2022-09-04T22:17:12.373Z,101033.81
2022-09-04T22:19:50.611Z,101034.56
2022-09-04T22:22:40.530Z,101039.22
2022-09-04T22:25:26.588Z,101035.88
2022-09-04T22:28:14.786Z,101034.88
2022-09-04T22:31:09.241Z,101032.28
2022-09-04T22:34:17.743Z,101040.44
2022-09-04T22:37:22.038Z,101035.84
2022-09-04T22:40:12.638Z,101038.44
2022-09-04T22:42:46.355Z,101039.06
2022-09-04T22:45:27.874Z,101042.44
2022-09-04T22:48:06.292Z,101038.75
2022-09-04T22:51:06.417Z,101045.09
2022-09-04T22:53:51.886Z,101049.25
2022-09-04T22:56:49.244Z,101042.25
2022-09-04T22:59:38.752Z,101041.56
2022-09-04T23:02:20.938Z,101046.91
2022-09-04T23:05:21.485Z,101046.59
2022-09-04T23:13:43.264Z,101049.56
2022-09-04T23:13:46.602Z,101048.88
2022-09-04T23:14:08.284Z,101052.13
2022-09-04T23:16:53.538Z,101049.22
2022-09-04T23:26:34.241Z,101052.84
2022-09-04T23:26:44.990Z,101049.53
2022-09-04T23:26:59.406Z,101045.72
2022-09-04T23:28:52.305Z,101053.63
2022-09-04T23:31:37.779Z,101052.63
2022-09-04T23:34:27.982Z,101034.75
2022-09-04T23:37:01.078Z,101048.59
2022-09-04T23:39:54.939Z,101042.72
2022-09-04T23:42:55.428Z,101047.06
2022-09-04T23:45:48.621Z,101046.09
2022-09-04T23:48:39.075Z,101049.78
2022-09-04T23:51:15.952Z,101051.31
2022-09-04T23:53:58.200Z,101047.22
2022-09-04T23:56:30.040Z,101045.34
2022-09-04T23:59:36.598Z,101050.09
